Time;durP1;ratioP1;P1;durP2;ratioP2;P2;SDS_P1;SDS_P2;PMS_P1;PMS_P2;Temp;Humidity;BMP_temperature;BMP_pressure;BME280_temperature;BME280_humidity;BME280_pressure;Samples;Min_cycle;Max_cycle;Signal;HPM_P1;HPM_P2
2021/04/16 00:00:49;;;;;;;7.47;3.50;;;;;;;3.92;100.00;103219.25;1792341;80;26656;-80
2021/04/16 00:03:20;;;;;;;5.10;3.40;;;;;;;4.05;100.00;103221.38;1792216;80;26315;-81
2021/04/16 00:05:50;;;;;;;3.77;3.23;;;;;;;4.07;100.00;103221.52;1792308;80;26339;-82
2021/04/16 00:08:24;;;;;;;5.77;3.33;;;;;;;3.90;100.00;103221.82;1792317;80;26712;-82
2021/04/16 00:10:58;;;;;;;4.73;3.33;;;;;;;3.83;100.00;103218.97;1778707;81;26316;-82
2021/04/16 00:13:28;;;;;;;4.50;3.57;;;;;;;3.85;100.00;103226.49;1786985;80;26303;-82
2021/04/16 00:15:59;;;;;;;5.73;3.47;;;;;;;3.75;100.00;103218.17;1792238;80;26222;-82
2021/04/16 00:18:31;;;;;;;5.30;3.67;;;;;;;3.74;100.00;103214.56;1792349;80;26233;-82
2021/04/16 00:21:01;;;;;;;4.60;3.63;;;;;;;3.55;100.00;103215.05;1792342;80;26611;-81
2021/04/16 00:23:32;;;;;;;5.87;3.40;;;;;;;3.71;100.00;103223.18;1792317;80;26778;-81
2021/04/16 00:26:03;;;;;;;5.67;3.53;;;;;;;3.65;100.00;103216.51;1792265;78;26372;-81
2021/04/16 00:28:33;;;;;;;6.67;3.30;;;;;;;3.62;100.00;103210.53;1792257;80;26310;-81
2021/04/16 00:31:09;;;;;;;6.10;3.23;;;;;;;3.68;100.00;103212.53;1729343;83;26243;-81
2021/04/16 00:33:39;;;;;;;4.57;3.37;;;;;;;3.82;100.00;103213.64;1792289;80;26320;-81
2021/04/16 00:36:10;;;;;;;4.37;3.03;;;;;;;3.77;100.00;103206.45;1792338;80;26266;-81
2021/04/16 00:38:41;;;;;;;4.73;3.47;;;;;;;3.68;100.00;103207.58;1792175;80;26288;-81
2021/04/16 00:41:14;;;;;;;4.20;3.00;;;;;;;3.58;100.00;103205.05;1792300;80;26376;-81
2021/04/16 00:43:45;;;;;;;3.80;3.43;;;;;;;3.60;100.00;103205.20;1792225;80;26336;-81
2021/04/16 00:46:24;;;;;;;5.37;3.00;;;;;;;3.66;100.00;103207.75;1792291;80;26668;-81
2021/04/16 00:48:57;;;;;;;3.83;3.10;;;;;;;3.60;100.00;103203.82;1792212;80;26721;-81
2021/04/16 00:51:31;;;;;;;7.67;3.10;;;;;;;3.64;100.00;103202.94;1778742;81;26341;-81
2021/04/16 00:54:03;;;;;;;4.83;3.33;;;;;;;3.57;100.00;103204.71;1778738;81;26661;-81
2021/04/16 00:56:34;;;;;;;6.10;3.50;;;;;;;3.51;100.00;103201.30;1786933;80;26269;-81
2021/04/16 00:59:04;;;;;;;7.07;3.90;;;;;;;3.48;100.00;103193.43;1778587;81;26253;-81
2021/04/16 01:01:34;;;;;;;4.53;3.80;;;;;;;3.51;100.00;103195.80;1792153;80;26299;-81
2021/04/16 01:04:04;;;;;;;6.20;3.60;;;;;;;3.39;100.00;103200.00;1792161;80;26257;-81
2021/04/16 01:06:35;;;;;;;5.83;4.60;;;;;;;3.37;100.00;103191.97;1792291;80;26751;-80
2021/04/16 01:09:05;;;;;;;6.43;3.80;;;;;;;3.36;100.00;103188.87;1792292;80;26241;-80
2021/04/16 01:11:35;;;;;;;7.20;4.67;;;;;;;3.34;100.00;103192.30;1792204;80;26307;-80
2021/04/16 01:14:06;;;;;;;8.43;3.90;;;;;;;3.31;100.00;103184.43;1792325;80;26314;-82
2021/04/16 01:16:37;;;;;;;6.37;3.90;;;;;;;3.36;100.00;103187.50;1792213;80;26308;-82
2021/04/16 01:19:10;;;;;;;8.60;4.50;;;;;;;3.40;100.00;103185.24;1792215;80;26233;-82
2021/04/16 01:21:43;;;;;;;4.33;3.33;;;;;;;3.39;100.00;103189.88;1778935;81;26789;-81
2021/04/16 01:24:23;;;;;;;4.80;3.60;;;;;;;3.27;100.00;103194.58;1792157;80;26318;-81
2021/04/16 01:26:54;;;;;;;6.87;4.00;;;;;;;3.13;100.00;103183.84;1792154;78;26361;-81
2021/04/16 01:29:25;;;;;;;6.73;3.80;;;;;;;3.17;100.00;103189.30;1792168;80;26244;-80
2021/04/16 01:31:55;;;;;;;8.57;4.20;;;;;;;3.17;100.00;103191.53;1792252;80;26649;-81
2021/04/16 01:34:28;;;;;;;5.63;3.67;;;;;;;3.03;100.00;103188.19;1792143;80;26233;-80
2021/04/16 01:37:00;;;;;;;5.43;4.10;;;;;;;3.01;100.00;103181.15;1792197;80;26664;-81
2021/04/16 01:39:32;;;;;;;7.43;3.80;;;;;;;3.05;100.00;103179.76;1792323;80;26249;-83
2021/04/16 01:42:02;;;;;;;5.97;3.93;;;;;;;3.01;100.00;103180.64;1792160;80;26314;-83
2021/04/16 01:44:33;;;;;;;6.83;3.90;;;;;;;2.93;100.00;103181.19;1792209;80;26237;-84
2021/04/16 01:47:05;;;;;;;8.00;4.10;;;;;;;2.99;100.00;103185.47;1792213;80;26225;-82
2021/04/16 01:49:38;;;;;;;7.00;4.03;;;;;;;2.97;100.00;103181.17;1778627;81;26382;-82
2021/04/16 01:52:11;;;;;;;6.53;3.90;;;;;;;3.02;100.00;103188.36;1786908;80;26327;-82
2021/04/16 01:54:43;;;;;;;5.53;4.17;;;;;;;2.99;100.00;103184.61;1778651;81;26277;-81
2021/04/16 01:57:16;;;;;;;4.97;4.10;;;;;;;3.14;100.00;103180.92;1786928;80;26237;-82
2021/04/16 01:59:48;;;;;;;4.80;3.80;;;;;;;2.90;100.00;103183.78;1792500;80;26337;-86
2021/04/16 02:02:20;;;;;;;5.40;4.40;;;;;;;2.99;100.00;103181.86;1792323;80;26721;-84
2021/04/16 02:04:52;;;;;;;6.17;4.27;;;;;;;2.96;100.00;103182.20;1792291;80;26285;-85
2021/04/16 02:07:22;;;;;;;5.93;4.47;;;;;;;3.05;100.00;103180.62;1792316;80;26319;-83
2021/04/16 02:09:51;;;;;;;6.77;4.30;;;;;;;2.95;100.00;103179.97;1792219;80;26382;-82
2021/04/16 02:12:23;;;;;;;7.97;4.53;;;;;;;2.99;100.00;103182.72;1792255;80;26319;-83
2021/04/16 02:14:54;;;;;;;7.47;4.63;;;;;;;3.01;100.00;103183.38;1792503;80;26740;-82
2021/04/16 02:17:27;;;;;;;5.60;4.17;;;;;;;2.94;100.00;103183.77;1792246;80;26237;-82
2021/04/16 02:20:00;;;;;;;6.90;4.27;;;;;;;2.92;100.00;103187.19;1792261;80;26755;-82
2021/04/16 02:22:30;;;;;;;7.80;4.23;;;;;;;2.81;100.00;103186.73;1778804;81;26688;-82
2021/04/16 02:25:00;;;;;;;10.03;4.33;;;;;;;2.72;100.00;103188.64;1778786;81;26225;-82
2021/04/16 02:27:30;;;;;;;5.83;4.23;;;;;;;2.89;100.00;103182.06;1773707;80;26366;-82
2021/04/16 02:30:00;;;;;;;4.83;4.20;;;;;;;2.95;100.00;103184.08;1800890;80;26217;-82
2021/04/16 02:32:30;;;;;;;5.80;3.93;;;;;;;2.97;100.00;103177.91;1768714;81;26226;-81
2021/04/16 02:35:00;;;;;;;7.17;4.20;;;;;;;2.90;100.00;103173.31;1803761;79;26228;-81
2021/04/16 02:37:30;;;;;;;6.37;4.43;;;;;;;2.88;100.00;103173.48;1803795;79;26257;-81
2021/04/16 02:39:59;;;;;;;7.67;4.17;;;;;;;2.78;100.00;103170.62;1768731;81;26311;-82
2021/04/16 02:42:29;;;;;;;6.70;4.40;;;;;;;2.68;100.00;103177.17;1800915;80;26317;-82
2021/04/16 02:44:59;;;;;;;5.97;4.23;;;;;;;2.77;100.00;103173.89;1801044;80;26230;-83
2021/04/16 02:47:29;;;;;;;5.53;4.80;;;;;;;2.73;100.00;103172.02;1768760;80;26218;-83
2021/04/16 02:49:59;;;;;;;6.03;4.53;;;;;;;2.56;100.00;103177.72;1800960;80;26738;-83
2021/04/16 02:52:29;;;;;;;5.80;4.50;;;;;;;2.65;100.00;103180.25;1801141;79;26293;-82
2021/04/16 02:54:59;;;;;;;8.13;4.57;;;;;;;2.65;100.00;103183.53;1801068;79;26370;-82
2021/04/16 02:57:29;;;;;;;7.03;5.67;;;;;;;2.65;100.00;103180.79;1800973;80;26302;-85
2021/04/16 02:59:59;;;;;;;7.83;5.20;;;;;;;2.80;100.00;103185.02;1768674;80;26315;-83
2021/04/16 03:02:29;;;;;;;7.20;5.20;;;;;;;2.79;100.00;103183.29;1800927;80;26315;-84
2021/04/16 03:04:59;;;;;;;6.30;4.47;;;;;;;2.74;100.00;103183.82;1801089;79;26432;-84
2021/04/16 03:07:29;;;;;;;6.33;5.10;;;;;;;2.75;100.00;103174.05;1768815;80;26283;-84
2021/04/16 03:09:58;;;;;;;7.17;5.07;;;;;;;2.69;100.00;103179.41;1800978;80;26687;-83
2021/04/16 03:12:28;;;;;;;7.03;4.90;;;;;;;2.72;100.00;103181.27;1801009;79;26633;-83
2021/04/16 03:14:58;;;;;;;5.63;4.80;;;;;;;2.58;100.00;103175.64;1801016;79;26664;-82
2021/04/16 03:17:28;;;;;;;6.53;4.70;;;;;;;2.67;100.00;103178.70;1768644;81;26665;-82
2021/04/16 03:19:58;;;;;;;7.90;5.33;;;;;;;2.55;100.00;103186.98;1800954;79;26703;-82
2021/04/16 03:22:28;;;;;;;6.17;4.67;;;;;;;2.52;100.00;103185.97;1800964;80;26306;-83
2021/04/16 03:24:58;;;;;;;6.03;4.53;;;;;;;2.46;100.00;103186.66;1801073;80;26354;-84
2021/04/16 03:27:28;;;;;;;6.13;4.90;;;;;;;2.60;100.00;103185.94;1768710;79;26326;-81
2021/04/16 03:30:11;;;;;;;6.63;5.17;;;;;;;2.66;100.00;103182.48;1734761;83;31570;-81
2021/04/16 03:32:41;;;;;;;7.07;5.33;;;;;;;2.61;100.00;103179.44;1735203;83;26717;-81
2021/04/16 03:35:15;;;;;;;9.77;6.20;;;;;;;2.78;100.00;103180.23;1735248;83;26296;-82
2021/04/16 03:37:45;;;;;;;9.70;6.50;;;;;;;3.11;100.00;103177.17;1735319;83;26259;-84
2021/04/16 03:40:18;;;;;;;7.13;6.40;;;;;;;3.24;100.00;103177.09;1735189;83;26338;-83
2021/04/16 03:42:48;;;;;;;7.57;6.10;;;;;;;3.59;100.00;103183.41;1735290;83;26331;-83
2021/04/16 03:45:19;;;;;;;8.43;6.43;;;;;;;3.40;100.00;103180.61;1735302;83;26263;-84
2021/04/16 03:47:50;;;;;;;7.40;5.50;;;;;;;3.05;100.00;103179.24;1735334;83;26326;-82
2021/04/16 03:50:23;;;;;;;8.60;6.33;;;;;;;2.92;100.00;103191.31;1735212;83;26342;-82
2021/04/16 03:52:54;;;;;;;7.57;6.10;;;;;;;2.95;100.00;103180.51;1735149;83;26801;-82
2021/04/16 03:55:27;;;;;;;8.23;6.67;;;;;;;2.98;100.00;103178.77;1735240;83;26783;-82
2021/04/16 03:57:57;;;;;;;9.30;6.60;;;;;;;2.91;100.00;103180.53;1740247;82;26345;-83
2021/04/16 04:00:31;;;;;;;10.73;7.97;;;;;;;2.84;100.00;103182.25;1734207;79;932900;-83
2021/04/16 04:03:01;;;;;;;8.23;6.83;;;;;;;2.84;100.00;103182.25;1803743;79;26711;-86
2021/04/16 04:05:31;;;;;;;9.00;6.60;;;;;;;2.78;100.00;103178.86;1803848;79;26821;-85
2021/04/16 04:08:01;;;;;;;9.30;6.83;;;;;;;2.82;100.00;103180.22;1803825;79;26295;-84
2021/04/16 04:10:36;;;;;;;9.97;6.93;;;;;;;2.79;100.00;103177.80;1803724;79;26217;-85
2021/04/16 04:13:08;;;;;;;8.80;6.40;;;;;;;2.77;100.00;103182.63;1768688;81;26649;-84
2021/04/16 04:15:38;;;;;;;10.43;6.83;;;;;;;2.70;100.00;103181.95;1800938;80;26637;-84
2021/04/16 04:18:09;;;;;;;7.80;6.83;;;;;;;2.61;100.00;103192.61;1800939;80;26232;-83
2021/04/16 04:20:41;;;;;;;9.60;6.93;;;;;;;2.45;100.00;103193.16;1768650;80;26237;-84
2021/04/16 04:23:11;;;;;;;8.20;6.73;;;;;;;2.46;100.00;103194.38;1768556;81;26684;-84
2021/04/16 04:25:41;;;;;;;8.43;6.20;;;;;;;2.31;100.00;103191.16;1803765;79;26228;-84
2021/04/16 04:28:11;;;;;;;9.70;6.93;;;;;;;2.31;100.00;103187.04;1801580;78;26822;-84
2021/04/16 04:30:40;;;;;;;8.83;6.57;;;;;;;2.35;100.00;103190.63;1792246;80;26327;-84
2021/04/16 04:33:10;;;;;;;10.50;6.87;;;;;;;2.39;100.00;103187.88;1792331;80;26226;-82
2021/04/16 04:35:41;;;;;;;8.57;7.47;;;;;;;2.39;100.00;103191.99;1792326;80;26300;-83
2021/04/16 04:38:11;;;;;;;11.10;6.70;;;;;;;2.52;100.00;103195.57;1792321;80;26287;-83
2021/04/16 04:40:40;;;;;;;10.57;7.63;;;;;;;2.62;100.00;103192.09;1792194;80;26222;-83
2021/04/16 04:43:10;;;;;;;9.43;7.50;;;;;;;2.32;100.00;103192.84;1792339;80;26241;-83
2021/04/16 04:45:40;;;;;;;10.57;7.73;;;;;;;2.36;100.00;103195.58;1792247;80;26758;-83
2021/04/16 04:48:11;;;;;;;12.90;7.63;;;;;;;2.29;100.00;103192.17;1792199;80;26303;-83
2021/04/16 04:50:41;;;;;;;10.43;7.17;;;;;;;2.31;100.00;103192.52;1792371;80;26225;-83
2021/04/16 04:53:10;;;;;;;10.73;7.73;;;;;;;2.26;100.00;103188.92;1792299;80;26739;-83
2021/04/16 04:55:40;;;;;;;9.43;7.47;;;;;;;2.31;100.00;103192.52;1792253;80;26653;-83
2021/04/16 04:58:10;;;;;;;8.77;7.23;;;;;;;2.13;100.00;103188.08;1792412;80;26229;-83
2021/04/16 05:00:40;;;;;;;7.63;6.60;;;;;;;2.05;100.00;103185.35;1792263;80;26350;-82
2021/04/16 05:03:10;;;;;;;10.17;7.30;;;;;;;2.01;100.00;103190.80;1792290;80;26256;-82
2021/04/16 05:05:40;;;;;;;10.47;7.87;;;;;;;2.01;100.00;103194.92;1792284;80;26233;-81
2021/04/16 05:08:09;;;;;;;9.97;7.73;;;;;;;2.04;100.00;103195.11;1792221;80;26224;-82
2021/04/16 05:10:39;;;;;;;8.73;7.13;;;;;;;2.02;100.00;103195.77;1792277;80;26226;-82
2021/04/16 05:13:09;;;;;;;9.57;7.27;;;;;;;1.99;100.00;103201.10;1792298;80;26224;-82
2021/04/16 05:15:39;;;;;;;9.47;7.57;;;;;;;2.02;100.00;103191.66;1792400;80;26328;-83
2021/04/16 05:18:09;;;;;;;9.87;7.47;;;;;;;2.13;100.00;103197.69;1792198;80;26300;-83
2021/04/16 05:20:39;;;;;;;14.57;7.90;;;;;;;2.14;100.00;103198.54;1792155;80;26677;-83
2021/04/16 05:23:09;;;;;;;12.37;8.07;;;;;;;2.26;100.00;103197.16;1792203;80;26760;-83
2021/04/16 05:25:39;;;;;;;10.70;7.77;;;;;;;2.33;100.00;103195.94;1792256;80;26669;-82
2021/04/16 05:28:09;;;;;;;9.60;7.73;;;;;;;2.34;100.00;103200.39;1792333;80;26308;-83
2021/04/16 05:30:39;;;;;;;11.67;8.57;;;;;;;2.26;100.00;103202.64;1792150;78;26798;-82
2021/04/16 05:33:09;;;;;;;11.07;7.77;;;;;;;2.35;100.00;103198.86;1792222;80;26653;-82
2021/04/16 05:35:39;;;;;;;9.67;7.07;;;;;;;2.39;100.00;103201.59;1792451;80;26213;-82
2021/04/16 05:38:09;;;;;;;8.53;6.90;;;;;;;2.35;100.00;103201.61;1792321;80;26296;-83
2021/04/16 05:40:38;;;;;;;9.83;8.13;;;;;;;2.43;100.00;103193.36;1792344;80;26673;-82
2021/04/16 05:43:10;;;;;;;10.00;7.23;;;;;;;2.42;100.00;103192.15;1792328;80;26233;-82
2021/04/16 05:45:40;;;;;;;9.60;7.27;;;;;;;2.52;100.00;103197.80;1792285;80;26700;-81
2021/04/16 05:48:10;;;;;;;13.33;8.07;;;;;;;2.59;100.00;103199.31;1792293;80;26237;-82
2021/04/16 05:50:40;;;;;;;10.47;7.70;;;;;;;2.62;100.00;103194.84;1792383;80;26354;-82
2021/04/16 05:53:10;;;;;;;10.27;7.67;;;;;;;2.71;100.00;103193.28;1792338;80;26330;-81
2021/04/16 05:55:40;;;;;;;12.83;8.53;;;;;;;2.68;100.00;103192.27;1792310;80;26233;-81
2021/04/16 05:58:11;;;;;;;10.47;7.87;;;;;;;2.74;100.00;103201.66;1792302;80;26229;-81
2021/04/16 06:00:40;;;;;;;10.97;8.43;;;;;;;2.66;100.00;103202.55;1792300;80;26238;-79
2021/04/16 06:03:12;;;;;;;12.53;9.00;;;;;;;2.67;100.00;103207.02;1792352;80;26282;-79
2021/04/16 06:05:42;;;;;;;11.23;8.90;;;;;;;2.71;100.00;103209.73;1792556;80;26229;-79
2021/04/16 06:08:13;;;;;;;9.97;8.47;;;;;;;2.70;100.00;103204.41;1792407;80;26716;-79
2021/04/16 06:10:43;;;;;;;12.13;8.30;;;;;;;2.67;100.00;103198.78;1792422;80;26348;-79
2021/04/16 06:13:13;;;;;;;10.73;8.03;;;;;;;2.73;100.00;103208.20;1792376;80;26261;-80
2021/04/16 06:15:43;;;;;;;9.90;7.43;;;;;;;2.80;100.00;103205.08;1792296;80;26234;-79
2021/04/16 06:18:12;;;;;;;12.73;8.57;;;;;;;2.88;100.00;103211.05;1792321;80;26237;-78
2021/04/16 06:20:42;;;;;;;12.63;8.37;;;;;;;3.07;100.00;103207.91;1792266;80;26307;-80
2021/04/16 06:23:15;;;;;;;11.90;8.33;;;;;;;3.36;100.00;103209.48;1792384;80;26242;-80
2021/04/16 06:25:45;;;;;;;12.77;9.00;;;;;;;3.44;100.00;103208.05;1792308;80;26228;-81
2021/04/16 06:28:15;;;;;;;11.17;7.87;;;;;;;3.71;100.00;103211.33;1792272;80;26252;-80
2021/04/16 06:30:45;;;;;;;11.23;8.73;;;;;;;3.88;100.00;103212.41;1792268;78;26296;-79
2021/04/16 06:33:25;;;;;;;10.77;8.83;;;;;;;4.03;100.00;103209.17;1792265;80;26244;-79
2021/04/16 06:35:57;;;;;;;12.73;8.07;;;;;;;4.13;100.00;103208.93;1792551;80;26499;-80
2021/04/16 06:38:30;;;;;;;11.63;8.63;;;;;;;4.38;100.00;103209.55;1792736;80;26344;-80
2021/04/16 06:41:02;;;;;;;9.80;7.30;;;;;;;4.57;100.00;103216.77;1778738;81;26658;-80
2021/04/16 06:43:35;;;;;;;9.67;7.87;;;;;;;4.73;100.00;103210.23;1787028;80;26239;-80
2021/04/16 06:46:07;;;;;;;11.77;8.87;;;;;;;4.71;100.00;103209.55;1792210;80;26264;-80
2021/04/16 06:48:37;;;;;;;13.67;8.43;;;;;;;4.64;100.00;103211.88;1792348;80;26253;-80
2021/04/16 06:51:09;;;;;;;12.30;8.90;;;;;;;4.64;100.00;103212.73;1792440;80;26308;-81
2021/04/16 06:53:44;;;;;;;14.47;9.67;;;;;;;4.69;100.00;103214.41;1792291;80;26307;-80
2021/04/16 06:56:17;;;;;;;10.70;9.37;;;;;;;4.69;100.00;103209.42;1791116;80;26260;-81
2021/04/16 06:58:52;;;;;;;9.67;8.67;;;;;;;4.82;100.00;103213.75;1792279;80;26316;-80
2021/04/16 07:01:30;;;;;;;12.90;8.73;;;;;;;4.93;100.00;103202.24;1792233;80;26241;-79
2021/04/16 07:04:13;;;;;;;12.63;8.20;;;;;;;4.82;100.00;103212.37;1778712;81;26324;-78
2021/04/16 07:06:43;;;;;;;10.43;7.40;;;;;;;5.17;100.00;103204.71;1787139;80;26242;-79
2021/04/16 07:09:17;;;;;;;9.33;7.27;;;;;;;5.22;100.00;103204.96;1778803;81;26685;-83
2021/04/16 07:11:50;;;;;;;10.47;7.47;;;;;;;5.37;100.00;103200.30;1792497;80;26262;-82
2021/04/16 07:14:23;;;;;;;10.40;7.77;;;;;;;5.61;100.00;103199.08;1792778;80;26265;-84
2021/04/16 07:16:53;;;;;;;10.77;7.93;;;;;;;5.67;100.00;103200.21;1778822;80;26277;-82
2021/04/16 07:19:26;;;;;;;9.53;7.43;;;;;;;5.83;100.00;103198.05;1792320;80;26319;-83
2021/04/16 07:22:02;;;;;;;11.20;7.43;;;;;;;5.84;100.00;103197.01;1778830;81;26249;-85
2021/04/16 07:24:34;;;;;;;10.30;6.90;;;;;;;5.85;100.00;103194.59;1792239;80;26245;-79
2021/04/16 07:27:21;;;;;;;9.07;6.90;;;;;;;6.06;100.00;103202.03;1792251;80;26319;-81
2021/04/16 07:29:54;;;;;;;11.57;7.07;;;;;;;6.08;100.00;103205.43;1792338;80;26344;-82
2021/04/16 07:32:42;;;;;;;7.87;6.50;;;;;;;6.47;100.00;103199.39;1793051;79;26708;-83
2021/04/16 07:35:27;;;;;;;9.57;6.70;;;;;;;6.46;100.00;103196.30;1779715;80;26223;-78
2021/04/16 07:38:18;;;;;;;8.50;6.80;;;;;;;6.51;100.00;103199.84;1792779;80;26237;-79
2021/04/16 07:40:48;;;;;;;9.97;6.03;;;;;;;6.50;100.00;103196.25;1779095;80;26364;-78
2021/04/16 07:43:39;;;;;;;8.27;6.47;;;;;;;6.92;100.00;103193.88;1792850;80;26767;-77
2021/04/16 07:46:20;;;;;;;7.07;5.60;;;;;;;7.12;100.00;103193.44;1779685;81;26316;-75
2021/04/16 07:48:50;;;;;;;7.10;5.50;;;;;;;7.22;100.00;103193.92;1779472;81;26709;-75
2021/04/16 07:51:30;;;;;;;12.40;6.13;;;;;;;7.34;100.00;103195.56;1793098;80;26638;-76
2021/04/16 07:54:05;;;;;;;8.77;5.60;;;;;;;7.43;100.00;103192.08;1792826;80;26715;-76
2021/04/16 07:56:35;;;;;;;11.43;5.67;;;;;;;7.64;100.00;103188.64;1790838;80;26385;-76
2021/04/16 07:59:10;;;;;;;9.43;6.50;;;;;;;7.93;100.00;103180.50;1779594;80;26253;-76
2021/04/16 08:01:44;;;;;;;10.60;6.27;;;;;;;7.87;100.00;103185.51;1792974;80;26295;-75
2021/04/16 08:04:17;;;;;;;8.93;6.13;;;;;;;8.29;100.00;103181.52;1793093;80;26307;-75
2021/04/16 08:06:49;;;;;;;8.67;6.60;;;;;;;8.51;100.00;103181.63;1787671;80;26272;-76
2021/04/16 08:09:33;;;;;;;7.30;5.47;;;;;;;8.53;100.00;103180.00;1792926;80;26229;-76
2021/04/16 08:12:13;;;;;;;11.40;6.30;;;;;;;8.55;100.00;103177.35;1779602;80;26225;-75
2021/04/16 08:14:45;;;;;;;10.20;6.47;;;;;;;8.58;100.00;103184.37;1779531;81;26332;-75
2021/04/16 08:17:21;;;;;;;9.20;6.43;;;;;;;8.72;100.00;103180.52;1779560;81;26341;-75
2021/04/16 08:19:51;;;;;;;9.40;7.00;;;;;;;8.56;100.00;103184.57;1792822;80;26225;-76
2021/04/16 08:22:24;;;;;;;8.60;6.47;;;;;;;8.76;100.00;103178.16;1779541;80;26721;-75
2021/04/16 08:24:57;;;;;;;9.13;5.93;;;;;;;8.62;100.00;103183.73;1792707;80;26233;-75
2021/04/16 08:27:35;;;;;;;14.93;6.13;;;;;;;8.87;100.00;103182.50;1793304;80;26241;-75
2021/04/16 08:30:12;;;;;;;9.77;6.27;;;;;;;9.05;100.00;103175.73;1792740;80;26664;-75
2021/04/16 08:32:45;;;;;;;6.93;5.70;;;;;;;8.90;100.00;103174.30;1772708;80;26351;-76
2021/04/16 08:35:18;;;;;;;8.20;5.87;;;;;;;9.09;100.00;103175.61;1803789;79;26333;-76
2021/04/16 08:37:51;;;;;;;9.73;6.20;;;;;;;9.39;100.00;103168.98;1803807;79;26684;-76
2021/04/16 08:40:25;;;;;;;9.87;6.03;;;;;;;9.14;100.00;103175.81;1768520;81;26249;-76
2021/04/16 08:42:58;;;;;;;8.43;5.97;;;;;;;9.30;100.00;103175.84;1801026;80;26245;-77
2021/04/16 08:45:30;;;;;;;8.70;6.03;;;;;;;9.02;100.00;103172.55;1800983;79;26237;-76
2021/04/16 08:48:06;;;;;;;7.23;5.57;;;;;;;9.14;100.00;103172.19;1768686;80;26221;-76
2021/04/16 08:50:38;;;;;;;9.50;5.40;;;;;;;9.53;100.00;103165.60;1801188;79;26250;-76
2021/04/16 08:53:07;;;;;;;7.87;5.03;;;;;;;9.79;100.00;103157.12;1800816;80;26241;-76
2021/04/16 08:55:40;;;;;;;9.93;5.80;;;;;;;9.72;100.00;103167.39;1800958;80;26680;-77
2021/04/16 08:58:14;;;;;;;7.07;5.60;;;;;;;9.80;100.00;103167.66;1800909;79;26366;-76
2021/04/16 09:00:46;;;;;;;6.33;4.47;;;;;;;10.08;100.00;103163.09;1800950;80;26692;-75
2021/04/16 09:03:19;;;;;;;7.10;5.57;;;;;;;10.05;100.00;103163.02;1800711;80;26312;-77
2021/04/16 09:05:59;;;;;;;7.77;4.53;;;;;;;9.90;100.00;103163.33;1800877;79;26311;-76
2021/04/16 09:08:36;;;;;;;7.40;4.30;;;;;;;9.90;100.00;103159.70;1768644;80;26228;-76
2021/04/16 09:11:09;;;;;;;6.10;4.17;;;;;;;10.01;100.00;103157.04;1800926;80;26739;-74
2021/04/16 09:14:03;;;;;;;5.53;4.00;;;;;;;10.08;100.00;103161.17;1801070;80;26347;-76
2021/04/16 09:16:51;;;;;;;4.87;3.97;;;;;;;10.10;100.00;103163.16;1801065;80;26245;-76
2021/04/16 09:19:59;;;;;;;5.93;4.47;;;;;;;9.89;100.00;103167.17;1768809;80;26237;-75
2021/04/16 09:22:44;;;;;;;6.63;4.20;;;;;;;10.01;100.00;103161.20;1801083;80;26786;-76
2021/04/16 09:25:43;;;;;;;5.87;4.50;;;;;;;10.33;100.00;103162.05;1768725;80;26292;-75
2021/04/16 09:28:54;;;;;;;6.70;4.03;;;;;;;10.43;100.00;103160.16;1803906;79;26228;-75
2021/04/16 09:31:51;;;;;;;6.77;4.40;;;;;;;10.48;100.00;103159.76;1803776;78;26261;-75
2021/04/16 09:34:24;;;;;;;7.13;3.87;;;;;;;10.21;100.00;103158.31;1803921;79;26262;-75
2021/04/16 09:37:15;;;;;;;7.07;4.83;;;;;;;10.37;100.00;103153.57;1768700;81;26225;-75
2021/04/16 09:39:50;;;;;;;7.17;4.60;;;;;;;10.48;100.00;103161.15;1801107;80;26257;-75
2021/04/16 09:42:36;;;;;;;7.20;5.03;;;;;;;10.20;100.00;103166.87;1798514;80;26690;-75
2021/04/16 09:45:13;;;;;;;5.80;4.53;;;;;;;10.05;100.00;103161.06;1801156;79;26752;-75
2021/04/16 09:47:55;;;;;;;5.37;4.53;;;;;;;10.15;100.00;103163.88;1768704;80;26756;-74
2021/04/16 09:50:30;;;;;;;7.30;4.57;;;;;;;10.15;100.00;103166.16;1800948;80;26233;-75
2021/04/16 09:53:23;;;;;;;5.77;4.40;;;;;;;10.04;100.00;103166.33;1768692;80;26669;-75
2021/04/16 09:56:19;;;;;;;7.50;4.40;;;;;;;10.20;100.00;103172.42;1803844;79;26216;-75
2021/04/16 09:59:29;;;;;;;6.70;4.40;;;;;;;10.33;100.00;103161.20;1768737;81;26296;-75
2021/04/16 10:02:37;;;;;;;5.37;4.40;;;;;;;10.38;100.00;103158.06;1803746;79;26244;-75
2021/04/16 10:05:34;;;;;;;5.03;3.83;;;;;;;10.43;100.00;103153.20;1768664;81;26222;-75
2021/04/16 10:08:10;;;;;;;4.07;3.37;;;;;;;10.63;100.00;103144.13;1767445;81;26675;-75
2021/04/16 10:10:42;;;;;;;4.73;3.60;;;;;;;10.73;100.00;103137.51;1802458;78;26276;-75
2021/04/16 10:13:18;;;;;;;7.00;3.40;;;;;;;10.92;100.00;103139.73;1803855;79;26324;-75
2021/04/16 10:15:51;;;;;;;4.37;3.67;;;;;;;10.88;100.00;103130.16;1768426;81;26304;-76
2021/04/16 10:18:33;;;;;;;4.57;3.37;;;;;;;11.17;100.00;103126.58;1801091;80;26347;-76
2021/04/16 10:21:08;;;;;;;4.53;3.37;;;;;;;10.93;100.00;103128.92;1768745;80;26719;-76
2021/04/16 10:23:41;;;;;;;3.83;3.40;;;;;;;11.08;100.00;103130.75;1803830;79;26253;-76
2021/04/16 10:30:29;;;;;;;3.80;3.03;;;;;;;10.52;100.00;103123.20;1768808;81;26304;-76
2021/04/16 12:39:13;;;;;;;2.20;1.87;;;;;;;12.14;92.86;103056.27;1784330;80;26249;-75
2021/04/16 12:41:47;;;;;;;2.70;2.50;;;;;;;12.38;93.91;103043.16;1783954;80;26237;-75
2021/04/16 12:44:22;;;;;;;3.63;2.10;;;;;;;12.62;87.38;103037.29;1784012;80;26241;-75
2021/04/16 12:46:52;;;;;;;2.70;2.00;;;;;;;12.64;95.56;103046.81;1782922;80;26237;-75
2021/04/16 12:49:26;;;;;;;3.13;1.97;;;;;;;12.39;93.98;103049.04;1784213;80;26320;-75
2021/04/16 12:51:55;;;;;;;3.20;2.30;;;;;;;12.08;96.02;103045.53;1784442;80;26229;-75
2021/04/16 12:54:25;;;;;;;3.23;2.60;;;;;;;12.09;99.02;103043.05;1784296;80;26233;-75
2021/04/16 12:56:56;;;;;;;3.70;2.00;;;;;;;11.99;96.23;103043.34;1784174;80;26296;-75
2021/04/16 12:59:27;;;;;;;2.67;2.00;;;;;;;12.07;97.57;103038.80;1784298;80;26300;-76
2021/04/16 13:01:57;;;;;;;3.03;2.00;;;;;;;12.03;96.75;103037.59;1784154;80;26842;-75
2021/04/16 13:04:27;;;;;;;3.07;2.17;;;;;;;12.54;93.18;103032.64;1784185;80;26269;-76
2021/04/16 13:07:00;;;;;;;4.30;2.13;;;;;;;12.28;87.40;103032.07;1784165;80;26281;-76
2021/04/16 13:09:30;;;;;;;4.07;2.17;;;;;;;11.92;93.60;103029.55;1784266;80;26328;-76
2021/04/16 13:12:00;;;;;;;3.33;2.00;;;;;;;11.75;92.89;103025.77;1784235;80;26303;-76
2021/04/16 13:14:30;;;;;;;3.17;2.07;;;;;;;11.45;91.90;103031.91;1784225;80;26230;-76
2021/04/16 13:17:00;;;;;;;4.07;2.20;;;;;;;11.53;96.19;103028.24;1784229;80;26245;-77
2021/04/16 13:19:32;;;;;;;4.00;2.53;;;;;;;11.72;93.97;103015.12;1784144;80;26249;-76
2021/04/16 13:22:05;;;;;;;3.23;1.90;;;;;;;12.05;95.32;103019.56;1784114;80;26778;-77
2021/04/16 13:24:37;;;;;;;2.30;1.83;;;;;;;12.63;84.45;103009.72;1784191;80;26311;-76
2021/04/16 13:27:10;;;;;;;2.73;2.20;;;;;;;12.72;84.81;103002.66;1784142;80;26327;-76
2021/04/16 13:29:41;;;;;;;2.20;1.80;;;;;;;12.01;76.94;103008.60;1784160;80;26238;-76
2021/04/16 13:32:14;;;;;;;3.13;2.03;;;;;;;12.67;84.86;103000.30;1784110;80;26303;-77
2021/04/16 13:34:46;;;;;;;3.67;1.93;;;;;;;12.56;85.62;102999.80;1777833;79;26724;-75
2021/04/16 13:37:19;;;;;;;3.03;1.70;;;;;;;12.24;89.04;103005.78;1768541;81;26672;-75
2021/04/16 13:39:50;;;;;;;3.90;2.10;;;;;;;12.41;95.11;103000.30;1800926;80;26237;-77
2021/04/16 13:42:19;;;;;;;4.87;2.67;;;;;;;12.36;95.28;103003.00;1800957;79;26311;-76
2021/04/16 13:44:49;;;;;;;3.20;2.20;;;;;;;11.86;86.69;103009.06;1800877;79;26252;-76
2021/04/16 13:47:24;;;;;;;2.67;1.90;;;;;;;11.94;92.45;103000.07;1800875;79;26233;-76
2021/04/16 13:49:58;;;;;;;4.70;2.20;;;;;;;11.99;93.57;102992.66;1768478;81;26750;-76
2021/04/16 13:52:29;;;;;;;3.20;1.90;;;;;;;12.17;89.45;102988.90;1800822;80;26813;-76
2021/04/16 13:54:59;;;;;;;3.07;2.20;;;;;;;12.63;86.38;102983.77;1801163;79;26268;-79
2021/04/16 13:57:29;;;;;;;2.53;2.13;;;;;;;12.75;78.38;102977.05;1768715;81;26241;-79
2021/04/16 13:59:58;;;;;;;3.20;2.00;;;;;;;12.75;78.94;102978.45;1801006;80;26338;-79